sensor_id;sensor_type;location;lat;lon;timestamp;P1;durP1;ratioP1;P2;durP2;ratioP2
19260;SDS011;75986;48.588;9.216;2024-02-16T00:00:07;3.45;;;1.92;;
19260;SDS011;75986;48.588;9.216;2024-02-16T00:02:39;3.42;;;1.60;;
19260;SDS011;75986;48.588;9.216;2024-02-16T00:05:13;3.75;;;1.67;;
19260;SDS011;75986;48.588;9.216;2024-02-16T00:07:44;5.22;;;2.25;;
19260;SDS011;75986;48.588;9.216;2024-02-16T00:10:15;5.20;;;2.20;;
19260;SDS011;75986;48.588;9.216;2024-02-16T00:12:47;6.97;;;2.15;;
19260;SDS011;75986;48.588;9.216;2024-02-16T00:15:17;3.10;;;1.63;;
19260;SDS011;75986;48.588;9.216;2024-02-16T00:17:49;3.95;;;1.75;;
19260;SDS011;75986;48.588;9.216;2024-02-16T00:20:22;6.43;;;1.70;;
19260;SDS011;75986;48.588;9.216;2024-02-16T00:22:53;5.05;;;1.90;;
19260;SDS011;75986;48.588;9.216;2024-02-16T00:25:23;4.50;;;2.00;;
19260;SDS011;75986;48.588;9.216;2024-02-16T00:27:54;4.97;;;1.73;;
19260;SDS011;75986;48.588;9.216;2024-02-16T00:30:25;6.03;;;1.90;;
19260;SDS011;75986;48.588;9.216;2024-02-16T00:32:55;4.93;;;2.00;;
19260;SDS011;75986;48.588;9.216;2024-02-16T00:35:30;3.45;;;2.22;;
19260;SDS011;75986;48.588;9.216;2024-02-16T00:38:01;5.30;;;1.75;;
19260;SDS011;75986;48.588;9.216;2024-02-16T00:40:32;3.55;;;2.03;;
19260;SDS011;75986;48.588;9.216;2024-02-16T00:43:03;5.28;;;2.30;;
19260;SDS011;75986;48.588;9.216;2024-02-16T00:45:34;6.03;;;2.28;;
19260;SDS011;75986;48.588;9.216;2024-02-16T00:48:05;4.43;;;1.70;;
19260;SDS011;75986;48.588;9.216;2024-02-16T00:50:38;4.10;;;1.95;;
19260;SDS011;75986;48.588;9.216;2024-02-16T00:53:10;3.17;;;1.90;;
19260;SDS011;75986;48.588;9.216;2024-02-16T00:55:41;5.60;;;2.22;;
19260;SDS011;75986;48.588;9.216;2024-02-16T00:58:12;5.55;;;1.83;;
19260;SDS011;75986;48.588;9.216;2024-02-16T01:00:43;3.15;;;1.80;;
19260;SDS011;75986;48.588;9.216;2024-02-16T01:03:14;3.08;;;1.70;;
19260;SDS011;75986;48.588;9.216;2024-02-16T01:05:47;7.05;;;1.90;;
19260;SDS011;75986;48.588;9.216;2024-02-16T01:08:18;4.57;;;1.88;;
19260;SDS011;75986;48.588;9.216;2024-02-16T01:10:50;6.93;;;1.80;;
19260;SDS011;75986;48.588;9.216;2024-02-16T01:13:20;5.20;;;2.22;;
19260;SDS011;75986;48.588;9.216;2024-02-16T01:15:51;2.95;;;1.70;;
19260;SDS011;75986;48.588;9.216;2024-02-16T01:18:22;3.83;;;1.83;;
19260;SDS011;75986;48.588;9.216;2024-02-16T01:20:55;4.43;;;2.15;;
19260;SDS011;75986;48.588;9.216;2024-02-16T01:23:26;4.05;;;1.75;;
19260;SDS011;75986;48.588;9.216;2024-02-16T01:25:57;3.80;;;1.60;;
19260;SDS011;75986;48.588;9.216;2024-02-16T01:28:27;4.88;;;1.63;;
19260;SDS011;75986;48.588;9.216;2024-02-16T01:30:58;3.92;;;1.80;;
19260;SDS011;75986;48.588;9.216;2024-02-16T01:33:29;4.22;;;1.60;;
19260;SDS011;75986;48.588;9.216;2024-02-16T01:36:04;3.85;;;1.80;;
19260;SDS011;75986;48.588;9.216;2024-02-16T01:38:35;5.03;;;1.63;;
19260;SDS011;75986;48.588;9.216;2024-02-16T01:41:06;5.72;;;1.85;;
19260;SDS011;75986;48.588;9.216;2024-02-16T01:43:37;3.08;;;1.70;;
19260;SDS011;75986;48.588;9.216;2024-02-16T01:46:08;6.13;;;2.03;;
19260;SDS011;75986;48.588;9.216;2024-02-16T01:48:39;3.33;;;1.50;;
19260;SDS011;75986;48.588;9.216;2024-02-16T01:51:12;5.13;;;1.88;;
19260;SDS011;75986;48.588;9.216;2024-02-16T01:53:44;3.63;;;1.95;;
19260;SDS011;75986;48.588;9.216;2024-02-16T01:56:15;4.38;;;1.35;;
19260;SDS011;75986;48.588;9.216;2024-02-16T01:58:47;2.70;;;1.60;;
19260;SDS011;75986;48.588;9.216;2024-02-16T02:01:19;4.70;;;1.90;;
19260;SDS011;75986;48.588;9.216;2024-02-16T02:03:49;5.20;;;1.75;;
19260;SDS011;75986;48.588;9.216;2024-02-16T02:06:23;5.65;;;1.90;;
19260;SDS011;75986;48.588;9.216;2024-02-16T02:09:07;4.75;;;1.90;;
19260;SDS011;75986;48.588;9.216;2024-02-16T02:11:38;3.28;;;1.88;;
19260;SDS011;75986;48.588;9.216;2024-02-16T02:14:09;4.85;;;1.58;;
19260;SDS011;75986;48.588;9.216;2024-02-16T02:16:40;4.68;;;1.92;;
19260;SDS011;75986;48.588;9.216;2024-02-16T02:19:24;6.35;;;2.28;;
19260;SDS011;75986;48.588;9.216;2024-02-16T02:21:57;3.53;;;1.70;;
19260;SDS011;75986;48.588;9.216;2024-02-16T02:24:30;4.95;;;1.80;;
19260;SDS011;75986;48.588;9.216;2024-02-16T02:27:01;2.72;;;1.50;;
19260;SDS011;75986;48.588;9.216;2024-02-16T02:29:32;3.58;;;1.67;;
19260;SDS011;75986;48.588;9.216;2024-02-16T02:32:03;5.07;;;2.35;;
19260;SDS011;75986;48.588;9.216;2024-02-16T02:34:34;3.25;;;1.77;;
19260;SDS011;75986;48.588;9.216;2024-02-16T02:37:06;3.17;;;1.55;;
19260;SDS011;75986;48.588;9.216;2024-02-16T02:39:39;3.05;;;1.67;;
19260;SDS011;75986;48.588;9.216;2024-02-16T02:42:11;3.42;;;1.92;;
19260;SDS011;75986;48.588;9.216;2024-02-16T02:44:42;3.05;;;1.95;;
19260;SDS011;75986;48.588;9.216;2024-02-16T02:47:17;3.63;;;1.95;;
19260;SDS011;75986;48.588;9.216;2024-02-16T02:49:45;4.10;;;1.55;;
19260;SDS011;75986;48.588;9.216;2024-02-16T02:52:16;3.22;;;1.40;;
19260;SDS011;75986;48.588;9.216;2024-02-16T02:54:47;4.97;;;1.80;;
19260;SDS011;75986;48.588;9.216;2024-02-16T02:57:17;3.85;;;1.52;;
19260;SDS011;75986;48.588;9.216;2024-02-16T02:59:48;2.58;;;1.70;;
19260;SDS011;75986;48.588;9.216;2024-02-16T03:02:19;3.75;;;2.05;;
19260;SDS011;75986;48.588;9.216;2024-02-16T03:04:49;3.65;;;1.88;;
19260;SDS011;75986;48.588;9.216;2024-02-16T03:07:20;3.17;;;1.60;;
19260;SDS011;75986;48.588;9.216;2024-02-16T03:09:53;4.18;;;1.55;;
19260;SDS011;75986;48.588;9.216;2024-02-16T03:12:24;4.15;;;1.83;;
19260;SDS011;75986;48.588;9.216;2024-02-16T03:14:55;2.55;;;1.65;;
19260;SDS011;75986;48.588;9.216;2024-02-16T03:17:25;4.53;;;1.50;;
19260;SDS011;75986;48.588;9.216;2024-02-16T03:19:56;3.00;;;1.50;;
19260;SDS011;75986;48.588;9.216;2024-02-16T03:22:27;3.65;;;1.45;;
19260;SDS011;75986;48.588;9.216;2024-02-16T03:25:00;5.28;;;1.95;;
19260;SDS011;75986;48.588;9.216;2024-02-16T03:27:32;1.88;;;1.40;;
19260;SDS011;75986;48.588;9.216;2024-02-16T03:30:04;3.30;;;2.08;;
19260;SDS011;75986;48.588;9.216;2024-02-16T03:32:35;3.38;;;1.67;;
19260;SDS011;75986;48.588;9.216;2024-02-16T03:35:06;4.43;;;1.75;;
19260;SDS011;75986;48.588;9.216;2024-02-16T03:37:37;3.58;;;1.55;;
19260;SDS011;75986;48.588;9.216;2024-02-16T03:40:11;2.00;;;1.40;;
19260;SDS011;75986;48.588;9.216;2024-02-16T03:42:43;2.92;;;1.50;;
19260;SDS011;75986;48.588;9.216;2024-02-16T03:45:13;2.83;;;1.50;;
19260;SDS011;75986;48.588;9.216;2024-02-16T03:47:44;3.17;;;1.58;;
19260;SDS011;75986;48.588;9.216;2024-02-16T03:50:16;2.22;;;1.50;;
19260;SDS011;75986;48.588;9.216;2024-02-16T03:52:46;2.92;;;1.30;;
19260;SDS011;75986;48.588;9.216;2024-02-16T03:55:19;3.28;;;1.50;;
19260;SDS011;75986;48.588;9.216;2024-02-16T03:57:50;4.75;;;1.80;;
19260;SDS011;75986;48.588;9.216;2024-02-16T04:00:20;3.15;;;1.42;;
19260;SDS011;75986;48.588;9.216;2024-02-16T04:02:51;3.35;;;1.67;;
19260;SDS011;75986;48.588;9.216;2024-02-16T04:05:21;4.75;;;1.77;;
19260;SDS011;75986;48.588;9.216;2024-02-16T04:07:57;2.88;;;1.52;;
19260;SDS011;75986;48.588;9.216;2024-02-16T04:10:34;3.13;;;1.60;;
19260;SDS011;75986;48.588;9.216;2024-02-16T04:13:05;4.95;;;1.60;;
19260;SDS011;75986;48.588;9.216;2024-02-16T04:15:36;2.13;;;1.33;;
19260;SDS011;75986;48.588;9.216;2024-02-16T04:18:06;2.03;;;1.45;;
19260;SDS011;75986;48.588;9.216;2024-02-16T04:20:37;2.45;;;1.40;;
19260;SDS011;75986;48.588;9.216;2024-02-16T04:23:08;3.13;;;1.48;;
19260;SDS011;75986;48.588;9.216;2024-02-16T04:25:41;3.17;;;1.73;;
19260;SDS011;75986;48.588;9.216;2024-02-16T04:28:12;2.00;;;1.50;;
19260;SDS011;75986;48.588;9.216;2024-02-16T04:30:45;4.30;;;1.70;;
19260;SDS011;75986;48.588;9.216;2024-02-16T04:33:15;2.25;;;1.67;;
19260;SDS011;75986;48.588;9.216;2024-02-16T04:35:46;2.28;;;1.40;;
19260;SDS011;75986;48.588;9.216;2024-02-16T04:38:17;2.72;;;1.77;;
19260;SDS011;75986;48.588;9.216;2024-02-16T04:40:50;3.53;;;1.52;;
19260;SDS011;75986;48.588;9.216;2024-02-16T04:43:21;2.78;;;1.40;;
19260;SDS011;75986;48.588;9.216;2024-02-16T04:45:52;4.18;;;1.55;;
19260;SDS011;75986;48.588;9.216;2024-02-16T04:48:22;3.50;;;1.65;;
19260;SDS011;75986;48.588;9.216;2024-02-16T04:50:53;1.83;;;1.30;;
19260;SDS011;75986;48.588;9.216;2024-02-16T04:53:24;2.05;;;1.38;;
19260;SDS011;75986;48.588;9.216;2024-02-16T04:55:57;3.25;;;1.73;;
19260;SDS011;75986;48.588;9.216;2024-02-16T04:58:28;3.33;;;1.58;;
19260;SDS011;75986;48.588;9.216;2024-02-16T05:00:59;3.05;;;1.35;;
19260;SDS011;75986;48.588;9.216;2024-02-16T05:03:30;2.17;;;1.30;;
19260;SDS011;75986;48.588;9.216;2024-02-16T05:06:00;2.67;;;1.55;;
19260;SDS011;75986;48.588;9.216;2024-02-16T05:08:31;2.97;;;1.67;;
19260;SDS011;75986;48.588;9.216;2024-02-16T05:11:04;2.80;;;1.70;;
19260;SDS011;75986;48.588;9.216;2024-02-16T05:13:35;2.20;;;1.55;;
19260;SDS011;75986;48.588;9.216;2024-02-16T05:16:09;3.45;;;1.60;;
19260;SDS011;75986;48.588;9.216;2024-02-16T05:18:40;3.10;;;1.20;;
19260;SDS011;75986;48.588;9.216;2024-02-16T05:21:11;3.40;;;1.85;;
19260;SDS011;75986;48.588;9.216;2024-02-16T05:23:42;2.53;;;1.55;;
19260;SDS011;75986;48.588;9.216;2024-02-16T05:26:15;2.55;;;1.33;;
19260;SDS011;75986;48.588;9.216;2024-02-16T05:28:45;3.20;;;1.65;;
19260;SDS011;75986;48.588;9.216;2024-02-16T05:31:16;2.30;;;1.60;;
19260;SDS011;75986;48.588;9.216;2024-02-16T05:33:48;2.05;;;1.42;;
19260;SDS011;75986;48.588;9.216;2024-02-16T05:36:20;1.80;;;1.38;;
19260;SDS011;75986;48.588;9.216;2024-02-16T05:38:54;2.47;;;1.52;;
19260;SDS011;75986;48.588;9.216;2024-02-16T05:41:41;2.15;;;1.40;;
19260;SDS011;75986;48.588;9.216;2024-02-16T05:44:12;2.92;;;1.27;;
19260;SDS011;75986;48.588;9.216;2024-02-16T05:46:44;1.85;;;1.33;;
19260;SDS011;75986;48.588;9.216;2024-02-16T05:49:14;1.63;;;1.20;;
19260;SDS011;75986;48.588;9.216;2024-02-16T05:51:45;2.58;;;1.35;;
19260;SDS011;75986;48.588;9.216;2024-02-16T05:54:44;3.30;;;1.75;;
19260;SDS011;75986;48.588;9.216;2024-02-16T05:57:19;2.80;;;1.25;;
19260;SDS011;75986;48.588;9.216;2024-02-16T05:59:51;1.70;;;1.25;;
19260;SDS011;75986;48.588;9.216;2024-02-16T06:02:24;2.30;;;1.30;;
19260;SDS011;75986;48.588;9.216;2024-02-16T06:04:55;2.40;;;1.23;;
19260;SDS011;75986;48.588;9.216;2024-02-16T06:07:25;2.22;;;1.27;;
19260;SDS011;75986;48.588;9.216;2024-02-16T06:09:56;3.15;;;1.42;;
19260;SDS011;75986;48.588;9.216;2024-02-16T06:12:30;2.60;;;1.52;;
19260;SDS011;75986;48.588;9.216;2024-02-16T06:15:00;2.78;;;1.60;;
19260;SDS011;75986;48.588;9.216;2024-02-16T06:17:31;1.88;;;1.38;;
19260;SDS011;75986;48.588;9.216;2024-02-16T06:20:04;3.22;;;1.60;;
19260;SDS011;75986;48.588;9.216;2024-02-16T06:22:36;2.85;;;1.50;;
19260;SDS011;75986;48.588;9.216;2024-02-16T06:25:07;3.53;;;1.42;;
19260;SDS011;75986;48.588;9.216;2024-02-16T06:27:40;2.00;;;1.35;;
19260;SDS011;75986;48.588;9.216;2024-02-16T06:30:12;2.92;;;1.48;;
19260;SDS011;75986;48.588;9.216;2024-02-16T06:32:43;4.25;;;1.70;;
19260;SDS011;75986;48.588;9.216;2024-02-16T06:35:14;3.78;;;1.30;;
19260;SDS011;75986;48.588;9.216;2024-02-16T06:37:45;3.08;;;1.38;;
19260;SDS011;75986;48.588;9.216;2024-02-16T06:40:16;3.25;;;1.48;;
19260;SDS011;75986;48.588;9.216;2024-02-16T06:42:49;1.90;;;1.35;;
19260;SDS011;75986;48.588;9.216;2024-02-16T06:45:19;5.28;;;1.70;;
19260;SDS011;75986;48.588;9.216;2024-02-16T06:47:50;3.20;;;1.85;;
19260;SDS011;75986;48.588;9.216;2024-02-16T06:50:21;4.97;;;1.80;;
19260;SDS011;75986;48.588;9.216;2024-02-16T06:52:51;6.35;;;1.98;;
19260;SDS011;75986;48.588;9.216;2024-02-16T06:55:22;4.03;;;1.75;;
19260;SDS011;75986;48.588;9.216;2024-02-16T06:57:55;3.88;;;1.60;;
19260;SDS011;75986;48.588;9.216;2024-02-16T07:00:26;5.03;;;1.90;;
19260;SDS011;75986;48.588;9.216;2024-02-16T07:02:57;8.57;;;2.20;;
19260;SDS011;75986;48.588;9.216;2024-02-16T07:05:28;5.97;;;1.70;;
19260;SDS011;75986;48.588;9.216;2024-02-16T07:08:03;11.52;;;2.10;;
19260;SDS011;75986;48.588;9.216;2024-02-16T07:10:34;7.15;;;1.88;;
19260;SDS011;75986;48.588;9.216;2024-02-16T07:13:07;9.50;;;2.25;;
19260;SDS011;75986;48.588;9.216;2024-02-16T07:15:38;7.78;;;2.20;;
19260;SDS011;75986;48.588;9.216;2024-02-16T07:18:08;5.90;;;2.08;;
19260;SDS011;75986;48.588;9.216;2024-02-16T07:20:40;11.45;;;2.47;;
19260;SDS011;75986;48.588;9.216;2024-02-16T07:23:13;6.45;;;2.08;;
19260;SDS011;75986;48.588;9.216;2024-02-16T07:25:44;5.68;;;2.00;;
19260;SDS011;75986;48.588;9.216;2024-02-16T07:28:18;4.43;;;1.77;;
19260;SDS011;75986;48.588;9.216;2024-02-16T07:30:49;7.95;;;2.20;;
19260;SDS011;75986;48.588;9.216;2024-02-16T07:33:20;6.27;;;2.30;;
19260;SDS011;75986;48.588;9.216;2024-02-16T07:35:52;8.77;;;1.90;;
19260;SDS011;75986;48.588;9.216;2024-02-16T07:38:23;6.53;;;2.38;;
19260;SDS011;75986;48.588;9.216;2024-02-16T07:40:54;4.35;;;2.03;;
19260;SDS011;75986;48.588;9.216;2024-02-16T07:43:28;7.00;;;2.20;;
19260;SDS011;75986;48.588;9.216;2024-02-16T07:45:59;4.70;;;2.15;;
19260;SDS011;75986;48.588;9.216;2024-02-16T07:48:30;4.32;;;1.88;;
19260;SDS011;75986;48.588;9.216;2024-02-16T07:51:01;8.57;;;2.78;;
19260;SDS011;75986;48.588;9.216;2024-02-16T07:53:32;5.75;;;1.98;;
19260;SDS011;75986;48.588;9.216;2024-02-16T07:56:03;5.75;;;2.33;;
19260;SDS011;75986;48.588;9.216;2024-02-16T07:58:36;4.75;;;2.10;;
19260;SDS011;75986;48.588;9.216;2024-02-16T08:01:07;5.18;;;1.77;;
19260;SDS011;75986;48.588;9.216;2024-02-16T08:03:37;3.72;;;1.90;;
19260;SDS011;75986;48.588;9.216;2024-02-16T08:06:08;5.40;;;2.10;;
19260;SDS011;75986;48.588;9.216;2024-02-16T08:08:39;7.32;;;2.25;;
19260;SDS011;75986;48.588;9.216;2024-02-16T08:11:09;9.30;;;2.13;;
19260;SDS011;75986;48.588;9.216;2024-02-16T08:13:43;4.43;;;1.90;;
19260;SDS011;75986;48.588;9.216;2024-02-16T08:16:13;5.82;;;2.10;;
19260;SDS011;75986;48.588;9.216;2024-02-16T08:18:44;6.00;;;2.13;;
19260;SDS011;75986;48.588;9.216;2024-02-16T08:21:16;4.60;;;2.38;;
19260;SDS011;75986;48.588;9.216;2024-02-16T08:23:48;3.42;;;1.75;;
19260;SDS011;75986;48.588;9.216;2024-02-16T08:26:18;8.90;;;2.53;;
19260;SDS011;75986;48.588;9.216;2024-02-16T08:28:51;3.88;;;1.98;;
19260;SDS011;75986;48.588;9.216;2024-02-16T08:31:23;6.72;;;2.30;;
19260;SDS011;75986;48.588;9.216;2024-02-16T08:33:54;7.13;;;2.17;;
19260;SDS011;75986;48.588;9.216;2024-02-16T08:36:27;4.35;;;2.13;;
19260;SDS011;75986;48.588;9.216;2024-02-16T08:38:58;7.32;;;2.50;;
19260;SDS011;75986;48.588;9.216;2024-02-16T08:41:29;4.45;;;1.90;;
19260;SDS011;75986;48.588;9.216;2024-02-16T08:44:03;5.50;;;2.38;;
19260;SDS011;75986;48.588;9.216;2024-02-16T08:46:34;7.25;;;1.98;;
19260;SDS011;75986;48.588;9.216;2024-02-16T08:49:05;4.63;;;2.05;;
19260;SDS011;75986;48.588;9.216;2024-02-16T08:51:37;5.72;;;2.30;;
19260;SDS011;75986;48.588;9.216;2024-02-16T08:54:08;5.85;;;2.20;;
19260;SDS011;75986;48.588;9.216;2024-02-16T08:56:39;4.43;;;2.40;;
19260;SDS011;75986;48.588;9.216;2024-02-16T08:59:12;3.25;;;2.00;;
19260;SDS011;75986;48.588;9.216;2024-02-16T09:01:42;6.28;;;2.08;;
19260;SDS011;75986;48.588;9.216;2024-02-16T09:04:13;2.92;;;1.77;;
19260;SDS011;75986;48.588;9.216;2024-02-16T09:06:44;6.50;;;1.88;;
19260;SDS011;75986;48.588;9.216;2024-02-16T09:09:15;3.45;;;1.95;;
19260;SDS011;75986;48.588;9.216;2024-02-16T09:11:46;8.70;;;2.92;;
19260;SDS011;75986;48.588;9.216;2024-02-16T09:14:19;8.02;;;2.20;;
19260;SDS011;75986;48.588;9.216;2024-02-16T09:16:50;5.85;;;2.20;;
19260;SDS011;75986;48.588;9.216;2024-02-16T09:19:21;5.30;;;2.20;;
19260;SDS011;75986;48.588;9.216;2024-02-16T09:21:51;3.63;;;1.70;;
19260;SDS011;75986;48.588;9.216;2024-02-16T09:24:24;7.05;;;2.35;;
19260;SDS011;75986;48.588;9.216;2024-02-16T09:26:57;6.78;;;2.25;;
19260;SDS011;75986;48.588;9.216;2024-02-16T09:29:33;4.35;;;2.13;;
19260;SDS011;75986;48.588;9.216;2024-02-16T09:32:04;4.57;;;1.95;;
19260;SDS011;75986;48.588;9.216;2024-02-16T09:34:34;2.05;;;1.33;;
19260;SDS011;75986;48.588;9.216;2024-02-16T09:37:09;5.47;;;2.08;;
19260;SDS011;75986;48.588;9.216;2024-02-16T09:39:40;4.57;;;1.90;;
19260;SDS011;75986;48.588;9.216;2024-02-16T09:42:11;5.03;;;2.42;;
19260;SDS011;75986;48.588;9.216;2024-02-16T09:44:45;6.38;;;2.20;;
19260;SDS011;75986;48.588;9.216;2024-02-16T09:47:17;5.70;;;2.33;;
19260;SDS011;75986;48.588;9.216;2024-02-16T09:49:48;5.82;;;2.00;;
19260;SDS011;75986;48.588;9.216;2024-02-16T09:52:19;4.30;;;1.73;;
19260;SDS011;75986;48.588;9.216;2024-02-16T09:54:50;7.00;;;2.25;;
19260;SDS011;75986;48.588;9.216;2024-02-16T09:57:20;7.07;;;2.28;;
19260;SDS011;75986;48.588;9.216;2024-02-16T09:59:53;4.43;;;2.33;;
19260;SDS011;75986;48.588;9.216;2024-02-16T10:02:24;4.93;;;2.03;;
19260;SDS011;75986;48.588;9.216;2024-02-16T10:04:55;4.43;;;2.20;;
19260;SDS011;75986;48.588;9.216;2024-02-16T10:07:30;4.47;;;2.55;;
19260;SDS011;75986;48.588;9.216;2024-02-16T10:10:01;3.80;;;1.90;;
19260;SDS011;75986;48.588;9.216;2024-02-16T10:12:32;5.10;;;2.00;;
19260;SDS011;75986;48.588;9.216;2024-02-16T10:15:05;7.40;;;1.90;;
19260;SDS011;75986;48.588;9.216;2024-02-16T10:17:36;3.58;;;1.95;;
19260;SDS011;75986;48.588;9.216;2024-02-16T10:20:07;5.40;;;2.17;;
19260;SDS011;75986;48.588;9.216;2024-02-16T10:22:40;3.00;;;1.98;;
19260;SDS011;75986;48.588;9.216;2024-02-16T10:25:14;5.45;;;2.10;;
19260;SDS011;75986;48.588;9.216;2024-02-16T10:27:46;3.05;;;1.80;;
19260;SDS011;75986;48.588;9.216;2024-02-16T10:30:24;5.97;;;2.25;;
19260;SDS011;75986;48.588;9.216;2024-02-16T10:32:55;5.03;;;2.20;;
19260;SDS011;75986;48.588;9.216;2024-02-16T10:35:26;5.20;;;2.05;;
19260;SDS011;75986;48.588;9.216;2024-02-16T10:37:58;16.52;;;2.10;;
19260;SDS011;75986;48.588;9.216;2024-02-16T10:40:32;3.65;;;2.40;;
19260;SDS011;75986;48.588;9.216;2024-02-16T10:43:04;4.05;;;2.00;;
19260;SDS011;75986;48.588;9.216;2024-02-16T10:45:38;5.13;;;2.30;;
19260;SDS011;75986;48.588;9.216;2024-02-16T10:48:10;6.93;;;2.08;;
19260;SDS011;75986;48.588;9.216;2024-02-16T10:50:42;3.35;;;2.25;;
19260;SDS011;75986;48.588;9.216;2024-02-16T10:53:14;5.22;;;2.10;;
19260;SDS011;75986;48.588;9.216;2024-02-16T10:55:45;3.85;;;1.90;;
19260;SDS011;75986;48.588;9.216;2024-02-16T10:58:16;5.85;;;2.10;;
19260;SDS011;75986;48.588;9.216;2024-02-16T11:00:54;4.47;;;2.17;;
19260;SDS011;75986;48.588;9.216;2024-02-16T11:03:25;4.40;;;2.08;;
19260;SDS011;75986;48.588;9.216;2024-02-16T11:05:56;6.18;;;2.15;;
19260;SDS011;75986;48.588;9.216;2024-02-16T11:08:27;4.78;;;2.28;;
19260;SDS011;75986;48.588;9.216;2024-02-16T11:10:58;3.28;;;1.77;;
19260;SDS011;75986;48.588;9.216;2024-02-16T11:13:32;3.67;;;2.25;;
19260;SDS011;75986;48.588;9.216;2024-02-16T11:16:06;3.92;;;1.90;;
19260;SDS011;75986;48.588;9.216;2024-02-16T11:18:38;4.25;;;2.10;;
19260;SDS011;75986;48.588;9.216;2024-02-16T11:21:11;6.05;;;1.83;;
19260;SDS011;75986;48.588;9.216;2024-02-16T11:23:44;3.20;;;1.90;;
19260;SDS011;75986;48.588;9.216;2024-02-16T11:26:15;4.10;;;2.00;;
19260;SDS011;75986;48.588;9.216;2024-02-16T11:28:47;4.53;;;2.42;;
19260;SDS011;75986;48.588;9.216;2024-02-16T11:31:22;3.08;;;2.03;;
19260;SDS011;75986;48.588;9.216;2024-02-16T11:33:53;4.35;;;2.17;;
19260;SDS011;75986;48.588;9.216;2024-02-16T11:36:24;6.13;;;2.30;;
19260;SDS011;75986;48.588;9.216;2024-02-16T11:38:55;3.88;;;2.00;;
19260;SDS011;75986;48.588;9.216;2024-02-16T11:41:25;7.15;;;1.92;;
19260;SDS011;75986;48.588;9.216;2024-02-16T11:43:58;5.30;;;1.90;;
19260;SDS011;75986;48.588;9.216;2024-02-16T11:46:32;8.35;;;2.15;;
19260;SDS011;75986;48.588;9.216;2024-02-16T11:49:05;4.18;;;1.92;;
19260;SDS011;75986;48.588;9.216;2024-02-16T11:51:37;3.13;;;2.13;;
19260;SDS011;75986;48.588;9.216;2024-02-16T11:54:08;3.85;;;2.10;;
19260;SDS011;75986;48.588;9.216;2024-02-16T11:56:39;5.70;;;1.80;;
19260;SDS011;75986;48.588;9.216;2024-02-16T11:59:12;5.53;;;2.28;;
19260;SDS011;75986;48.588;9.216;2024-02-16T12:01:53;3.67;;;2.22;;
19260;SDS011;75986;48.588;9.216;2024-02-16T12:04:25;3.90;;;2.05;;
19260;SDS011;75986;48.588;9.216;2024-02-16T12:06:55;4.18;;;2.03;;
19260;SDS011;75986;48.588;9.216;2024-02-16T12:09:31;4.75;;;2.25;;
19260;SDS011;75986;48.588;9.216;2024-02-16T12:12:04;4.10;;;1.55;;
19260;SDS011;75986;48.588;9.216;2024-02-16T12:14:35;5.45;;;2.00;;
19260;SDS011;75986;48.588;9.216;2024-02-16T12:17:08;4.40;;;1.95;;
19260;SDS011;75986;48.588;9.216;2024-02-16T12:19:43;6.18;;;1.70;;
19260;SDS011;75986;48.588;9.216;2024-02-16T12:22:16;4.95;;;1.90;;
19260;SDS011;75986;48.588;9.216;2024-02-16T12:24:47;4.43;;;2.08;;
19260;SDS011;75986;48.588;9.216;2024-02-16T12:27:18;3.55;;;2.00;;
19260;SDS011;75986;48.588;9.216;2024-02-16T12:29:48;3.25;;;1.75;;
19260;SDS011;75986;48.588;9.216;2024-02-16T12:32:22;8.98;;;2.28;;
19260;SDS011;75986;48.588;9.216;2024-02-16T12:34:52;4.75;;;2.15;;
19260;SDS011;75986;48.588;9.216;2024-02-16T12:37:25;4.50;;;2.20;;
19260;SDS011;75986;48.588;9.216;2024-02-16T12:39:55;3.38;;;1.92;;
19260;SDS011;75986;48.588;9.216;2024-02-16T12:42:26;3.80;;;2.20;;
19260;SDS011;75986;48.588;9.216;2024-02-16T12:44:57;4.07;;;2.22;;
19260;SDS011;75986;48.588;9.216;2024-02-16T12:47:30;4.07;;;2.13;;
19260;SDS011;75986;48.588;9.216;2024-02-16T12:50:00;3.22;;;2.35;;
19260;SDS011;75986;48.588;9.216;2024-02-16T12:52:31;3.15;;;2.30;;
19260;SDS011;75986;48.588;9.216;2024-02-16T12:55:16;12.63;;;5.50;;
19260;SDS011;75986;48.588;9.216;2024-02-16T12:57:47;14.05;;;6.40;;
19260;SDS011;75986;48.588;9.216;2024-02-16T13:00:19;14.48;;;8.00;;
19260;SDS011;75986;48.588;9.216;2024-02-16T13:02:52;16.13;;;8.05;;
19260;SDS011;75986;48.588;9.216;2024-02-16T13:05:23;12.57;;;7.13;;
19260;SDS011;75986;48.588;9.216;2024-02-16T13:07:54;11.13;;;6.68;;
19260;SDS011;75986;48.588;9.216;2024-02-16T13:10:25;12.00;;;6.60;;
19260;SDS011;75986;48.588;9.216;2024-02-16T13:12:57;11.80;;;6.35;;
19260;SDS011;75986;48.588;9.216;2024-02-16T13:15:27;10.02;;;6.63;;
19260;SDS011;75986;48.588;9.216;2024-02-16T13:18:02;12.88;;;6.93;;
19260;SDS011;75986;48.588;9.216;2024-02-16T13:20:33;12.32;;;6.75;;
19260;SDS011;75986;48.588;9.216;2024-02-16T13:23:03;12.25;;;7.32;;
19260;SDS011;75986;48.588;9.216;2024-02-16T13:25:40;10.93;;;6.80;;
19260;SDS011;75986;48.588;9.216;2024-02-16T13:28:11;10.27;;;6.72;;
19260;SDS011;75986;48.588;9.216;2024-02-16T13:30:43;10.02;;;5.65;;
19260;SDS011;75986;48.588;9.216;2024-02-16T13:33:16;12.18;;;6.32;;
19260;SDS011;75986;48.588;9.216;2024-02-16T13:35:47;10.43;;;6.47;;
19260;SDS011;75986;48.588;9.216;2024-02-16T13:38:17;16.20;;;6.97;;
19260;SDS011;75986;48.588;9.216;2024-02-16T13:40:47;8.70;;;5.65;;
19260;SDS011;75986;48.588;9.216;2024-02-16T13:43:18;14.82;;;6.82;;
19260;SDS011;75986;48.588;9.216;2024-02-16T13:45:49;13.43;;;6.53;;
19260;SDS011;75986;48.588;9.216;2024-02-16T13:48:23;11.50;;;6.38;;
19260;SDS011;75986;48.588;9.216;2024-02-16T13:50:54;11.25;;;6.38;;
19260;SDS011;75986;48.588;9.216;2024-02-16T13:53:24;10.60;;;6.30;;
19260;SDS011;75986;48.588;9.216;2024-02-16T13:55:55;9.45;;;6.20;;
19260;SDS011;75986;48.588;9.216;2024-02-16T13:58:27;11.63;;;6.22;;
19260;SDS011;75986;48.588;9.216;2024-02-16T14:00:58;9.60;;;5.65;;
19260;SDS011;75986;48.588;9.216;2024-02-16T14:03:33;12.50;;;6.45;;
19260;SDS011;75986;48.588;9.216;2024-02-16T14:06:04;16.25;;;5.78;;
19260;SDS011;75986;48.588;9.216;2024-02-16T14:08:37;12.70;;;5.93;;
19260;SDS011;75986;48.588;9.216;2024-02-16T14:11:08;11.65;;;6.13;;
19260;SDS011;75986;48.588;9.216;2024-02-16T14:13:38;12.77;;;5.72;;
19260;SDS011;75986;48.588;9.216;2024-02-16T14:16:12;11.18;;;5.50;;
19260;SDS011;75986;48.588;9.216;2024-02-16T14:18:45;11.23;;;5.25;;
19260;SDS011;75986;48.588;9.216;2024-02-16T14:21:19;11.55;;;5.15;;
19260;SDS011;75986;48.588;9.216;2024-02-16T14:23:53;12.60;;;5.28;;
19260;SDS011;75986;48.588;9.216;2024-02-16T14:26:23;11.32;;;5.20;;
19260;SDS011;75986;48.588;9.216;2024-02-16T14:28:54;15.10;;;5.00;;
19260;SDS011;75986;48.588;9.216;2024-02-16T14:31:24;12.52;;;5.15;;
19260;SDS011;75986;48.588;9.216;2024-02-16T14:33:58;17.35;;;4.20;;
19260;SDS011;75986;48.588;9.216;2024-02-16T14:36:29;10.63;;;4.53;;
19260;SDS011;75986;48.588;9.216;2024-02-16T14:38:59;14.45;;;5.35;;
19260;SDS011;75986;48.588;9.216;2024-02-16T14:41:30;12.65;;;4.28;;
19260;SDS011;75986;48.588;9.216;2024-02-16T14:44:01;16.83;;;4.85;;
19260;SDS011;75986;48.588;9.216;2024-02-16T14:46:32;12.82;;;4.82;;
19260;SDS011;75986;48.588;9.216;2024-02-16T14:49:05;12.13;;;4.80;;
19260;SDS011;75986;48.588;9.216;2024-02-16T14:51:39;12.57;;;4.70;;
19260;SDS011;75986;48.588;9.216;2024-02-16T14:54:10;16.00;;;5.03;;
19260;SDS011;75986;48.588;9.216;2024-02-16T14:56:40;15.77;;;4.40;;
19260;SDS011;75986;48.588;9.216;2024-02-16T14:59:11;16.50;;;4.57;;
19260;SDS011;75986;48.588;9.216;2024-02-16T15:01:42;27.60;;;5.95;;
19260;SDS011;75986;48.588;9.216;2024-02-16T15:04:15;25.95;;;5.35;;
19260;SDS011;75986;48.588;9.216;2024-02-16T15:06:46;28.52;;;5.68;;
19260;SDS011;75986;48.588;9.216;2024-02-16T15:09:16;21.38;;;4.93;;
19260;SDS011;75986;48.588;9.216;2024-02-16T15:11:47;18.70;;;4.78;;